This is the latest recevied weather packets stored in our database for station/object KI6UAP-10. If no packets are shown the sender has not sent any weather packets the latest 10 day(s).
| Time | Temp. | Humidity | Pressure | Rain* | Wind** | Luminosity | Snow |
|---|---|---|---|---|---|---|---|
| 1777693174 | 16.67° C | 96% | 0 hPa | - | - | - | - |
| 1777692274 | 16.67° C | 96% | 0 hPa | - | - | - | - |
| 1777691374 | 17.22° C | 96% | 0 hPa | - | - | - | - |
| 1777690473 | 17.22° C | 98% | 0 hPa | - | - | - | - |
| 1777678561 | 26.67° C | 92% | 0 hPa | - | - | - | - |
| 1777677661 | 27.22° C | 92% | 0 hPa | - | - | - | - |
| 1777677581 | 27.22° C | 92% | 0 hPa | - | - | - | - |
| 1777677560 | 27.22° C | 92% | 0 hPa | - | - | - | - |
| 1777677467 | 27.22° C | 92% | 0 hPa | - | - | - | - |
| 1777677164 | 27.78° C | 92% | 0 hPa | - | - | - | - |
| 1777677141 | 27.78° C | 92% | 0 hPa | - | - | - | - |
| 1777677119 | 27.78° C | 92% | 0 hPa | - | - | - | - |
| 1777676218 | 28.89° C | 92% | 0 hPa | - | - | - | - |
| 1777676202 | 28.89° C | 92% | 0 hPa | - | - | - | - |
| 1777676187 | 28.89° C | 92% | 0 hPa | - | - | - | - |
| 1777675287 | 31.11° C | 90% | 0 hPa | - | - | - | - |
| 1777675247 | 31.11° C | 89% | 0 hPa | - | - | - | - |
| 1777675230 | 31.11° C | 89% | 0 hPa | - | - | - | - |
| 1777675054 | 32.22° C | 88% | 0 hPa | - | - | - | - |
| 1777675033 | 32.22° C | 88% | 0 hPa | - | - | - | - |
| 1777675009 | 32.78° C | 88% | 0 hPa | - | - | - | - |
| 1777674988 | 32.78° C | 87% | 0 hPa | - | - | - | - |
| 1777674972 | 32.78° C | 87% | 0 hPa | - | - | - | - |
| 1777674072 | 37.22° C | 80% | 0 hPa | - | - | - | - |
| 1777673171 | 34.44° C | 84% | 0 hPa | - | - | - | - |
* Rain since midnight (hover to see other rain measurements)
** Current wind speed in m/s (hover to see current wind gust speed)